sensor_id;sensor_type;location;lat;lon;timestamp;P1;durP1;ratioP1;P2;durP2;ratioP2
14358;SDS011;7263;49.418;11.064;2024-02-16T00:00:40;4.07;;;3.10;;
14358;SDS011;7263;49.418;11.064;2024-02-16T00:03:09;3.40;;;2.80;;
14358;SDS011;7263;49.418;11.064;2024-02-16T00:05:52;3.47;;;2.73;;
14358;SDS011;7263;49.418;11.064;2024-02-16T00:08:27;4.27;;;3.03;;
14358;SDS011;7263;49.418;11.064;2024-02-16T00:10:58;4.50;;;2.80;;
14358;SDS011;7263;49.418;11.064;2024-02-16T00:13:25;4.77;;;4.27;;
14358;SDS011;7263;49.418;11.064;2024-02-16T00:15:54;8.07;;;6.83;;
14358;SDS011;7263;49.418;11.064;2024-02-16T00:18:22;4.33;;;3.50;;
14358;SDS011;7263;49.418;11.064;2024-02-16T00:20:51;4.87;;;3.53;;
14358;SDS011;7263;49.418;11.064;2024-02-16T00:23:20;4.03;;;3.00;;
14358;SDS011;7263;49.418;11.064;2024-02-16T00:25:56;2.77;;;2.53;;
14358;SDS011;7263;49.418;11.064;2024-02-16T00:28:27;3.40;;;2.27;;
14358;SDS011;7263;49.418;11.064;2024-02-16T00:30:57;3.00;;;2.40;;
14358;SDS011;7263;49.418;11.064;2024-02-16T00:33:27;3.27;;;2.17;;
14358;SDS011;7263;49.418;11.064;2024-02-16T00:35:56;2.50;;;2.30;;
14358;SDS011;7263;49.418;11.064;2024-02-16T00:38:23;3.13;;;2.80;;
14358;SDS011;7263;49.418;11.064;2024-02-16T00:40:53;5.00;;;2.57;;
14358;SDS011;7263;49.418;11.064;2024-02-16T00:43:21;3.47;;;2.57;;
14358;SDS011;7263;49.418;11.064;2024-02-16T00:45:51;2.90;;;2.60;;
14358;SDS011;7263;49.418;11.064;2024-02-16T00:48:18;3.30;;;2.57;;
14358;SDS011;7263;49.418;11.064;2024-02-16T00:50:48;4.77;;;2.80;;
14358;SDS011;7263;49.418;11.064;2024-02-16T00:53:14;2.43;;;2.23;;
14358;SDS011;7263;49.418;11.064;2024-02-16T00:55:44;2.83;;;2.57;;
14358;SDS011;7263;49.418;11.064;2024-02-16T00:58:14;3.20;;;2.70;;
14358;SDS011;7263;49.418;11.064;2024-02-16T01:00:42;3.40;;;3.00;;
14358;SDS011;7263;49.418;11.064;2024-02-16T01:03:09;5.77;;;2.80;;
14358;SDS011;7263;49.418;11.064;2024-02-16T01:05:40;4.20;;;2.90;;
14358;SDS011;7263;49.418;11.064;2024-02-16T01:08:07;3.47;;;2.70;;
14358;SDS011;7263;49.418;11.064;2024-02-16T01:10:39;4.70;;;3.20;;
14358;SDS011;7263;49.418;11.064;2024-02-16T01:13:06;3.90;;;3.03;;
14358;SDS011;7263;49.418;11.064;2024-02-16T01:15:35;3.03;;;2.73;;
14358;SDS011;7263;49.418;11.064;2024-02-16T01:18:04;4.13;;;2.93;;
14358;SDS011;7263;49.418;11.064;2024-02-16T01:20:34;3.40;;;3.10;;
14358;SDS011;7263;49.418;11.064;2024-02-16T01:23:04;3.53;;;3.23;;
14358;SDS011;7263;49.418;11.064;2024-02-16T01:25:31;5.37;;;3.13;;
14358;SDS011;7263;49.418;11.064;2024-02-16T01:28:00;4.80;;;2.93;;
14358;SDS011;7263;49.418;11.064;2024-02-16T01:30:33;3.03;;;2.73;;
14358;SDS011;7263;49.418;11.064;2024-02-16T01:33:01;5.63;;;2.87;;
14358;SDS011;7263;49.418;11.064;2024-02-16T01:35:32;3.27;;;2.97;;
14358;SDS011;7263;49.418;11.064;2024-02-16T01:37:59;3.87;;;2.87;;
14358;SDS011;7263;49.418;11.064;2024-02-16T01:40:30;4.47;;;2.90;;
14358;SDS011;7263;49.418;11.064;2024-02-16T01:42:57;3.97;;;2.60;;
14358;SDS011;7263;49.418;11.064;2024-02-16T01:45:26;4.43;;;2.80;;
14358;SDS011;7263;49.418;11.064;2024-02-16T01:47:53;3.70;;;2.77;;
14358;SDS011;7263;49.418;11.064;2024-02-16T01:50:22;3.97;;;2.83;;
14358;SDS011;7263;49.418;11.064;2024-02-16T01:53:00;5.63;;;2.87;;
14358;SDS011;7263;49.418;11.064;2024-02-16T01:55:27;3.57;;;3.10;;
14358;SDS011;7263;49.418;11.064;2024-02-16T01:57:54;5.90;;;3.20;;
14358;SDS011;7263;49.418;11.064;2024-02-16T02:00:21;4.50;;;3.23;;
14358;SDS011;7263;49.418;11.064;2024-02-16T02:02:48;3.30;;;2.80;;
14358;SDS011;7263;49.418;11.064;2024-02-16T02:05:17;5.67;;;3.43;;
14358;SDS011;7263;49.418;11.064;2024-02-16T02:07:47;3.60;;;2.90;;
14358;SDS011;7263;49.418;11.064;2024-02-16T02:10:18;4.43;;;2.90;;
14358;SDS011;7263;49.418;11.064;2024-02-16T02:12:45;3.20;;;2.90;;
14358;SDS011;7263;49.418;11.064;2024-02-16T02:15:12;3.60;;;3.00;;
14358;SDS011;7263;49.418;11.064;2024-02-16T02:17:42;3.70;;;2.90;;
14358;SDS011;7263;49.418;11.064;2024-02-16T02:20:08;5.27;;;2.93;;
14358;SDS011;7263;49.418;11.064;2024-02-16T02:22:37;3.13;;;2.83;;
14358;SDS011;7263;49.418;11.064;2024-02-16T02:25:06;3.53;;;2.90;;
14358;SDS011;7263;49.418;11.064;2024-02-16T02:27:35;3.40;;;3.10;;
14358;SDS011;7263;49.418;11.064;2024-02-16T02:30:04;3.10;;;2.80;;
14358;SDS011;7263;49.418;11.064;2024-02-16T02:32:39;3.97;;;2.90;;
14358;SDS011;7263;49.418;11.064;2024-02-16T02:35:08;4.63;;;2.67;;
14358;SDS011;7263;49.418;11.064;2024-02-16T02:37:45;3.43;;;3.00;;
14358;SDS011;7263;49.418;11.064;2024-02-16T02:40:21;4.90;;;3.50;;
14358;SDS011;7263;49.418;11.064;2024-02-16T02:42:52;3.50;;;2.77;;
14358;SDS011;7263;49.418;11.064;2024-02-16T02:45:22;4.20;;;3.10;;
14358;SDS011;7263;49.418;11.064;2024-02-16T02:47:49;4.83;;;3.10;;
14358;SDS011;7263;49.418;11.064;2024-02-16T02:50:17;3.27;;;2.97;;
14358;SDS011;7263;49.418;11.064;2024-02-16T02:52:45;4.10;;;2.90;;
14358;SDS011;7263;49.418;11.064;2024-02-16T02:55:15;3.27;;;2.97;;
14358;SDS011;7263;49.418;11.064;2024-02-16T02:57:42;5.63;;;2.60;;
14358;SDS011;7263;49.418;11.064;2024-02-16T03:00:12;4.13;;;3.07;;
14358;SDS011;7263;49.418;11.064;2024-02-16T03:02:43;4.17;;;2.90;;
14358;SDS011;7263;49.418;11.064;2024-02-16T03:05:12;3.20;;;2.50;;
14358;SDS011;7263;49.418;11.064;2024-02-16T03:07:39;3.00;;;2.50;;
14358;SDS011;7263;49.418;11.064;2024-02-16T03:10:19;3.60;;;2.37;;
14358;SDS011;7263;49.418;11.064;2024-02-16T03:12:49;3.13;;;2.77;;
14358;SDS011;7263;49.418;11.064;2024-02-16T03:15:24;2.80;;;2.30;;
14358;SDS011;7263;49.418;11.064;2024-02-16T03:17:51;2.67;;;2.47;;
14358;SDS011;7263;49.418;11.064;2024-02-16T03:20:20;3.00;;;2.53;;
14358;SDS011;7263;49.418;11.064;2024-02-16T03:22:50;2.90;;;2.43;;
14358;SDS011;7263;49.418;11.064;2024-02-16T03:25:26;4.13;;;2.63;;
14358;SDS011;7263;49.418;11.064;2024-02-16T03:27:53;3.17;;;2.50;;
14358;SDS011;7263;49.418;11.064;2024-02-16T03:30:20;4.37;;;2.83;;
14358;SDS011;7263;49.418;11.064;2024-02-16T03:32:47;3.47;;;2.43;;
14358;SDS011;7263;49.418;11.064;2024-02-16T03:35:14;3.67;;;2.40;;
14358;SDS011;7263;49.418;11.064;2024-02-16T03:37:41;4.43;;;2.53;;
14358;SDS011;7263;49.418;11.064;2024-02-16T03:40:08;4.27;;;2.40;;
14358;SDS011;7263;49.418;11.064;2024-02-16T03:42:47;3.10;;;2.30;;
14358;SDS011;7263;49.418;11.064;2024-02-16T03:45:14;2.80;;;2.33;;
14358;SDS011;7263;49.418;11.064;2024-02-16T03:47:41;2.67;;;2.47;;
14358;SDS011;7263;49.418;11.064;2024-02-16T03:50:10;3.23;;;2.67;;
14358;SDS011;7263;49.418;11.064;2024-02-16T03:52:39;5.67;;;2.73;;
14358;SDS011;7263;49.418;11.064;2024-02-16T03:55:12;2.63;;;2.20;;
14358;SDS011;7263;49.418;11.064;2024-02-16T03:57:39;3.67;;;2.30;;
14358;SDS011;7263;49.418;11.064;2024-02-16T04:00:08;2.90;;;2.40;;
14358;SDS011;7263;49.418;11.064;2024-02-16T04:02:37;2.90;;;2.40;;
14358;SDS011;7263;49.418;11.064;2024-02-16T04:05:06;2.90;;;2.40;;
14358;SDS011;7263;49.418;11.064;2024-02-16T04:07:34;3.83;;;2.60;;
14358;SDS011;7263;49.418;11.064;2024-02-16T04:10:17;3.90;;;2.43;;
14358;SDS011;7263;49.418;11.064;2024-02-16T04:12:49;4.50;;;2.70;;
14358;SDS011;7263;49.418;11.064;2024-02-16T04:15:22;19.57;;;14.47;;
14358;SDS011;7263;49.418;11.064;2024-02-16T04:17:49;24.60;;;17.80;;
14358;SDS011;7263;49.418;11.064;2024-02-16T04:20:24;22.13;;;14.17;;
14358;SDS011;7263;49.418;11.064;2024-02-16T04:22:53;42.37;;;28.77;;
14358;SDS011;7263;49.418;11.064;2024-02-16T04:25:27;28.27;;;19.73;;
14358;SDS011;7263;49.418;11.064;2024-02-16T04:27:54;11.20;;;8.30;;
14358;SDS011;7263;49.418;11.064;2024-02-16T04:30:33;20.93;;;16.03;;
14358;SDS011;7263;49.418;11.064;2024-02-16T04:33:06;21.53;;;14.63;;
14358;SDS011;7263;49.418;11.064;2024-02-16T04:35:35;14.00;;;9.97;;
14358;SDS011;7263;49.418;11.064;2024-02-16T04:38:05;16.10;;;12.43;;
14358;SDS011;7263;49.418;11.064;2024-02-16T04:40:35;7.17;;;5.07;;
14358;SDS011;7263;49.418;11.064;2024-02-16T04:43:03;10.53;;;7.57;;
14358;SDS011;7263;49.418;11.064;2024-02-16T04:45:30;9.90;;;7.20;;
14358;SDS011;7263;49.418;11.064;2024-02-16T04:48:01;5.03;;;3.97;;
14358;SDS011;7263;49.418;11.064;2024-02-16T04:50:29;5.43;;;4.40;;
14358;SDS011;7263;49.418;11.064;2024-02-16T04:53:03;7.77;;;5.10;;
14358;SDS011;7263;49.418;11.064;2024-02-16T04:55:32;9.57;;;6.63;;
14358;SDS011;7263;49.418;11.064;2024-02-16T04:58:13;5.87;;;4.50;;
14358;SDS011;7263;49.418;11.064;2024-02-16T05:00:39;6.80;;;5.47;;
14358;SDS011;7263;49.418;11.064;2024-02-16T05:03:12;7.33;;;5.47;;
14358;SDS011;7263;49.418;11.064;2024-02-16T05:05:42;5.77;;;5.17;;
14358;SDS011;7263;49.418;11.064;2024-02-16T05:08:10;7.30;;;5.20;;
14358;SDS011;7263;49.418;11.064;2024-02-16T05:10:37;6.73;;;5.17;;
14358;SDS011;7263;49.418;11.064;2024-02-16T05:13:10;5.60;;;4.77;;
14358;SDS011;7263;49.418;11.064;2024-02-16T05:15:59;5.53;;;5.00;;
14358;SDS011;7263;49.418;11.064;2024-02-16T05:18:27;5.77;;;5.07;;
14358;SDS011;7263;49.418;11.064;2024-02-16T05:21:01;6.80;;;4.80;;
14358;SDS011;7263;49.418;11.064;2024-02-16T05:23:28;7.40;;;5.70;;
14358;SDS011;7263;49.418;11.064;2024-02-16T05:25:56;7.03;;;5.47;;
14358;SDS011;7263;49.418;11.064;2024-02-16T05:28:28;5.57;;;4.97;;
14358;SDS011;7263;49.418;11.064;2024-02-16T05:30:55;6.10;;;5.13;;
14358;SDS011;7263;49.418;11.064;2024-02-16T05:33:24;8.47;;;6.23;;
14358;SDS011;7263;49.418;11.064;2024-02-16T05:36:01;8.97;;;6.67;;
14358;SDS011;7263;49.418;11.064;2024-02-16T05:38:28;7.27;;;4.30;;
14358;SDS011;7263;49.418;11.064;2024-02-16T05:41:05;5.00;;;4.20;;
14358;SDS011;7263;49.418;11.064;2024-02-16T05:43:36;5.53;;;4.43;;
14358;SDS011;7263;49.418;11.064;2024-02-16T05:46:03;6.30;;;4.70;;
14358;SDS011;7263;49.418;11.064;2024-02-16T05:48:31;4.90;;;4.37;;
14358;SDS011;7263;49.418;11.064;2024-02-16T05:51:05;5.23;;;4.57;;
14358;SDS011;7263;49.418;11.064;2024-02-16T05:53:32;6.60;;;5.70;;
14358;SDS011;7263;49.418;11.064;2024-02-16T05:56:10;8.23;;;5.57;;
14358;SDS011;7263;49.418;11.064;2024-02-16T05:58:37;6.63;;;5.23;;
14358;SDS011;7263;49.418;11.064;2024-02-16T06:01:06;6.27;;;5.23;;
14358;SDS011;7263;49.418;11.064;2024-02-16T06:03:35;7.43;;;4.63;;
14358;SDS011;7263;49.418;11.064;2024-02-16T06:06:07;5.70;;;5.00;;
14358;SDS011;7263;49.418;11.064;2024-02-16T06:08:34;6.90;;;5.60;;
14358;SDS011;7263;49.418;11.064;2024-02-16T06:11:08;6.97;;;5.07;;
14358;SDS011;7263;49.418;11.064;2024-02-16T06:13:37;8.23;;;5.83;;
14358;SDS011;7263;49.418;11.064;2024-02-16T06:16:05;9.10;;;6.07;;
14358;SDS011;7263;49.418;11.064;2024-02-16T06:18:35;7.37;;;6.03;;
14358;SDS011;7263;49.418;11.064;2024-02-16T06:21:02;12.20;;;6.37;;
14358;SDS011;7263;49.418;11.064;2024-02-16T06:23:33;8.23;;;6.70;;
14358;SDS011;7263;49.418;11.064;2024-02-16T06:26:06;8.47;;;6.57;;
14358;SDS011;7263;49.418;11.064;2024-02-16T06:28:35;11.03;;;8.33;;
14358;SDS011;7263;49.418;11.064;2024-02-16T06:31:09;9.30;;;6.63;;
14358;SDS011;7263;49.418;11.064;2024-02-16T06:33:39;6.77;;;5.70;;
14358;SDS011;7263;49.418;11.064;2024-02-16T06:36:08;6.73;;;5.30;;
14358;SDS011;7263;49.418;11.064;2024-02-16T06:38:35;7.47;;;5.37;;
14358;SDS011;7263;49.418;11.064;2024-02-16T06:41:05;8.87;;;5.50;;
14358;SDS011;7263;49.418;11.064;2024-02-16T06:43:33;7.53;;;6.07;;
14358;SDS011;7263;49.418;11.064;2024-02-16T06:46:02;5.93;;;5.13;;
14358;SDS011;7263;49.418;11.064;2024-02-16T06:48:32;7.87;;;5.30;;
14358;SDS011;7263;49.418;11.064;2024-02-16T06:51:04;6.47;;;5.73;;
14358;SDS011;7263;49.418;11.064;2024-02-16T06:53:42;6.10;;;5.50;;
14358;SDS011;7263;49.418;11.064;2024-02-16T06:56:09;7.87;;;5.10;;
14358;SDS011;7263;49.418;11.064;2024-02-16T06:58:36;6.87;;;5.73;;
14358;SDS011;7263;49.418;11.064;2024-02-16T07:01:02;7.17;;;5.50;;
14358;SDS011;7263;49.418;11.064;2024-02-16T07:03:33;6.63;;;5.60;;
14358;SDS011;7263;49.418;11.064;2024-02-16T07:06:01;7.80;;;6.03;;
14358;SDS011;7263;49.418;11.064;2024-02-16T07:08:29;7.03;;;5.63;;
14358;SDS011;7263;49.418;11.064;2024-02-16T07:11:03;8.70;;;5.97;;
14358;SDS011;7263;49.418;11.064;2024-02-16T07:13:30;9.37;;;6.30;;
14358;SDS011;7263;49.418;11.064;2024-02-16T07:15:57;11.07;;;6.50;;
14358;SDS011;7263;49.418;11.064;2024-02-16T07:18:26;6.83;;;5.90;;
14358;SDS011;7263;49.418;11.064;2024-02-16T07:21:02;7.43;;;6.23;;
14358;SDS011;7263;49.418;11.064;2024-02-16T07:23:37;9.80;;;8.80;;
14358;SDS011;7263;49.418;11.064;2024-02-16T07:26:10;10.13;;;8.70;;
14358;SDS011;7263;49.418;11.064;2024-02-16T07:28:39;7.70;;;6.40;;
14358;SDS011;7263;49.418;11.064;2024-02-16T07:31:09;8.97;;;7.13;;
14358;SDS011;7263;49.418;11.064;2024-02-16T07:33:39;7.30;;;6.30;;
14358;SDS011;7263;49.418;11.064;2024-02-16T07:36:08;12.43;;;9.47;;
14358;SDS011;7263;49.418;11.064;2024-02-16T07:38:35;13.53;;;10.20;;
14358;SDS011;7263;49.418;11.064;2024-02-16T07:41:07;13.40;;;9.30;;
14358;SDS011;7263;49.418;11.064;2024-02-16T07:43:44;9.83;;;7.63;;
14358;SDS011;7263;49.418;11.064;2024-02-16T07:46:14;11.10;;;8.17;;
14358;SDS011;7263;49.418;11.064;2024-02-16T07:48:43;16.07;;;11.37;;
14358;SDS011;7263;49.418;11.064;2024-02-16T07:51:12;7.43;;;6.57;;
14358;SDS011;7263;49.418;11.064;2024-02-16T07:53:42;14.60;;;10.23;;
14358;SDS011;7263;49.418;11.064;2024-02-16T07:56:11;14.63;;;11.10;;
14358;SDS011;7263;49.418;11.064;2024-02-16T07:58:45;9.43;;;6.80;;
14358;SDS011;7263;49.418;11.064;2024-02-16T08:01:14;8.60;;;7.50;;
14358;SDS011;7263;49.418;11.064;2024-02-16T08:03:43;8.17;;;5.90;;
14358;SDS011;7263;49.418;11.064;2024-02-16T08:06:13;7.53;;;5.90;;
14358;SDS011;7263;49.418;11.064;2024-02-16T08:08:46;5.83;;;5.27;;
14358;SDS011;7263;49.418;11.064;2024-02-16T08:11:15;7.50;;;5.27;;
14358;SDS011;7263;49.418;11.064;2024-02-16T08:13:46;6.57;;;5.20;;
14358;SDS011;7263;49.418;11.064;2024-02-16T08:16:13;8.93;;;5.07;;
14358;SDS011;7263;49.418;11.064;2024-02-16T08:18:43;5.70;;;5.03;;
14358;SDS011;7263;49.418;11.064;2024-02-16T08:21:11;7.83;;;4.97;;
14358;SDS011;7263;49.418;11.064;2024-02-16T08:23:39;7.87;;;5.00;;
14358;SDS011;7263;49.418;11.064;2024-02-16T08:26:16;8.80;;;7.57;;
14358;SDS011;7263;49.418;11.064;2024-02-16T08:28:47;6.70;;;5.33;;
14358;SDS011;7263;49.418;11.064;2024-02-16T08:31:15;5.20;;;4.70;;
14358;SDS011;7263;49.418;11.064;2024-02-16T08:33:43;6.57;;;4.57;;
14358;SDS011;7263;49.418;11.064;2024-02-16T08:36:15;7.33;;;5.17;;
14358;SDS011;7263;49.418;11.064;2024-02-16T08:38:53;5.60;;;4.70;;
14358;SDS011;7263;49.418;11.064;2024-02-16T08:41:19;8.30;;;5.20;;
14358;SDS011;7263;49.418;11.064;2024-02-16T08:43:51;5.77;;;4.90;;
14358;SDS011;7263;49.418;11.064;2024-02-16T08:46:25;6.67;;;4.67;;
14358;SDS011;7263;49.418;11.064;2024-02-16T08:48:57;6.43;;;5.10;;
14358;SDS011;7263;49.418;11.064;2024-02-16T08:51:27;5.90;;;5.03;;
14358;SDS011;7263;49.418;11.064;2024-02-16T08:53:53;7.17;;;4.77;;
14358;SDS011;7263;49.418;11.064;2024-02-16T08:56:23;5.50;;;4.93;;
14358;SDS011;7263;49.418;11.064;2024-02-16T08:59:03;6.93;;;4.80;;
14358;SDS011;7263;49.418;11.064;2024-02-16T09:01:38;6.70;;;5.00;;
14358;SDS011;7263;49.418;11.064;2024-02-16T09:04:05;6.10;;;4.93;;
14358;SDS011;7263;49.418;11.064;2024-02-16T09:06:35;4.90;;;4.50;;
14358;SDS011;7263;49.418;11.064;2024-02-16T09:09:10;5.87;;;5.00;;
14358;SDS011;7263;49.418;11.064;2024-02-16T09:11:37;6.07;;;4.53;;
14358;SDS011;7263;49.418;11.064;2024-02-16T09:14:20;6.37;;;5.37;;
14358;SDS011;7263;49.418;11.064;2024-02-16T09:16:49;6.17;;;5.20;;
14358;SDS011;7263;49.418;11.064;2024-02-16T09:19:27;5.73;;;4.77;;
14358;SDS011;7263;49.418;11.064;2024-02-16T09:21:54;5.97;;;5.07;;
14358;SDS011;7263;49.418;11.064;2024-02-16T09:24:29;6.80;;;5.00;;
14358;SDS011;7263;49.418;11.064;2024-02-16T09:27:03;6.50;;;5.27;;
14358;SDS011;7263;49.418;11.064;2024-02-16T09:29:31;6.30;;;4.70;;
14358;SDS011;7263;49.418;11.064;2024-02-16T09:32:01;7.00;;;4.80;;
14358;SDS011;7263;49.418;11.064;2024-02-16T09:34:28;5.67;;;5.13;;
14358;SDS011;7263;49.418;11.064;2024-02-16T09:36:54;5.23;;;4.70;;
14358;SDS011;7263;49.418;11.064;2024-02-16T09:39:21;5.10;;;4.60;;
14358;SDS011;7263;49.418;11.064;2024-02-16T09:41:55;9.13;;;5.37;;
14358;SDS011;7263;49.418;11.064;2024-02-16T09:44:28;5.77;;;5.10;;
14358;SDS011;7263;49.418;11.064;2024-02-16T09:46:59;6.20;;;4.63;;
14358;SDS011;7263;49.418;11.064;2024-02-16T09:49:34;6.10;;;4.73;;
14358;SDS011;7263;49.418;11.064;2024-02-16T09:52:02;7.07;;;4.70;;
14358;SDS011;7263;49.418;11.064;2024-02-16T09:54:30;7.17;;;4.83;;
14358;SDS011;7263;49.418;11.064;2024-02-16T09:56:59;5.37;;;4.27;;
14358;SDS011;7263;49.418;11.064;2024-02-16T09:59:28;5.60;;;4.23;;
14358;SDS011;7263;49.418;11.064;2024-02-16T10:02:13;5.20;;;4.40;;
14358;SDS011;7263;49.418;11.064;2024-02-16T10:04:48;8.33;;;5.07;;
14358;SDS011;7263;49.418;11.064;2024-02-16T10:07:31;5.30;;;4.80;;
14358;SDS011;7263;49.418;11.064;2024-02-16T10:09:59;5.17;;;4.13;;
14358;SDS011;7263;49.418;11.064;2024-02-16T10:12:26;5.40;;;4.20;;
14358;SDS011;7263;49.418;11.064;2024-02-16T10:14:54;4.60;;;4.17;;
14358;SDS011;7263;49.418;11.064;2024-02-16T10:17:22;9.00;;;4.83;;
14358;SDS011;7263;49.418;11.064;2024-02-16T10:19:57;6.43;;;4.27;;
14358;SDS011;7263;49.418;11.064;2024-02-16T10:22:36;5.10;;;4.57;;
14358;SDS011;7263;49.418;11.064;2024-02-16T10:25:13;5.97;;;4.33;;
14358;SDS011;7263;49.418;11.064;2024-02-16T10:27:52;5.53;;;4.60;;
14358;SDS011;7263;49.418;11.064;2024-02-16T10:30:23;5.57;;;4.60;;
14358;SDS011;7263;49.418;11.064;2024-02-16T10:32:56;6.43;;;4.83;;
14358;SDS011;7263;49.418;11.064;2024-02-16T10:35:30;4.37;;;3.97;;
14358;SDS011;7263;49.418;11.064;2024-02-16T10:37:58;5.57;;;4.30;;
14358;SDS011;7263;49.418;11.064;2024-02-16T10:40:29;5.20;;;4.70;;
14358;SDS011;7263;49.418;11.064;2024-02-16T10:43:10;5.50;;;4.60;;
14358;SDS011;7263;49.418;11.064;2024-02-16T10:45:40;6.13;;;4.43;;
14358;SDS011;7263;49.418;11.064;2024-02-16T10:48:14;6.50;;;4.50;;
14358;SDS011;7263;49.418;11.064;2024-02-16T10:50:43;5.70;;;4.10;;
14358;SDS011;7263;49.418;11.064;2024-02-16T10:53:15;4.33;;;3.93;;
14358;SDS011;7263;49.418;11.064;2024-02-16T10:55:48;5.13;;;4.27;;
14358;SDS011;7263;49.418;11.064;2024-02-16T10:58:18;8.03;;;4.67;;
14358;SDS011;7263;49.418;11.064;2024-02-16T11:00:56;7.37;;;4.80;;
14358;SDS011;7263;49.418;11.064;2024-02-16T11:03:27;5.20;;;4.37;;
14358;SDS011;7263;49.418;11.064;2024-02-16T11:05:58;4.87;;;3.80;;
14358;SDS011;7263;49.418;11.064;2024-02-16T11:08:30;4.90;;;4.40;;
14358;SDS011;7263;49.418;11.064;2024-02-16T11:11:05;5.73;;;4.53;;
14358;SDS011;7263;49.418;11.064;2024-02-16T11:13:36;7.30;;;4.20;;
14358;SDS011;7263;49.418;11.064;2024-02-16T11:16:06;4.57;;;4.10;;
14358;SDS011;7263;49.418;11.064;2024-02-16T11:18:47;5.50;;;4.47;;
14358;SDS011;7263;49.418;11.064;2024-02-16T11:21:15;4.73;;;4.10;;
14358;SDS011;7263;49.418;11.064;2024-02-16T11:23:42;5.83;;;4.00;;
14358;SDS011;7263;49.418;11.064;2024-02-16T11:26:17;5.33;;;4.27;;
14358;SDS011;7263;49.418;11.064;2024-02-16T11:28:47;7.03;;;4.37;;
14358;SDS011;7263;49.418;11.064;2024-02-16T11:31:14;3.67;;;3.33;;
14358;SDS011;7263;49.418;11.064;2024-02-16T11:33:51;6.17;;;4.23;;
14358;SDS011;7263;49.418;11.064;2024-02-16T11:36:21;4.57;;;4.13;;
14358;SDS011;7263;49.418;11.064;2024-02-16T11:38:54;6.57;;;4.57;;
14358;SDS011;7263;49.418;11.064;2024-02-16T11:41:32;5.63;;;4.03;;
14358;SDS011;7263;49.418;11.064;2024-02-16T11:43:59;5.33;;;4.07;;
14358;SDS011;7263;49.418;11.064;2024-02-16T11:46:31;5.60;;;4.13;;
14358;SDS011;7263;49.418;11.064;2024-02-16T11:49:05;6.20;;;4.10;;
14358;SDS011;7263;49.418;11.064;2024-02-16T11:51:32;7.97;;;4.30;;
14358;SDS011;7263;49.418;11.064;2024-02-16T11:53:59;6.30;;;3.97;;
14358;SDS011;7263;49.418;11.064;2024-02-16T11:56:28;5.37;;;3.80;;
14358;SDS011;7263;49.418;11.064;2024-02-16T11:58:57;5.33;;;4.00;;
14358;SDS011;7263;49.418;11.064;2024-02-16T12:01:27;5.10;;;4.03;;
14358;SDS011;7263;49.418;11.064;2024-02-16T12:03:54;5.40;;;4.30;;
14358;SDS011;7263;49.418;11.064;2024-02-16T12:06:26;5.80;;;3.90;;
14358;SDS011;7263;49.418;11.064;2024-02-16T12:08:55;6.47;;;3.57;;
14358;SDS011;7263;49.418;11.064;2024-02-16T12:11:30;6.87;;;4.30;;
14358;SDS011;7263;49.418;11.064;2024-02-16T12:13:59;4.70;;;4.10;;
14358;SDS011;7263;49.418;11.064;2024-02-16T12:16:29;4.20;;;3.80;;
14358;SDS011;7263;49.418;11.064;2024-02-16T12:19:02;4.87;;;3.83;;
14358;SDS011;7263;49.418;11.064;2024-02-16T12:21:39;4.83;;;3.90;;
14358;SDS011;7263;49.418;11.064;2024-02-16T12:24:19;4.67;;;3.57;;
14358;SDS011;7263;49.418;11.064;2024-02-16T12:26:52;5.67;;;4.67;;
14358;SDS011;7263;49.418;11.064;2024-02-16T12:29:25;5.53;;;4.07;;
14358;SDS011;7263;49.418;11.064;2024-02-16T12:31:52;4.50;;;3.77;;
14358;SDS011;7263;49.418;11.064;2024-02-16T12:34:21;6.57;;;4.10;;
14358;SDS011;7263;49.418;11.064;2024-02-16T12:36:55;4.97;;;3.70;;
14358;SDS011;7263;49.418;11.064;2024-02-16T12:39:25;4.80;;;4.30;;
14358;SDS011;7263;49.418;11.064;2024-02-16T12:41:56;5.57;;;4.27;;
14358;SDS011;7263;49.418;11.064;2024-02-16T12:44:23;5.67;;;4.30;;
14358;SDS011;7263;49.418;11.064;2024-02-16T12:46:53;4.53;;;4.07;;
14358;SDS011;7263;49.418;11.064;2024-02-16T12:49:20;7.43;;;4.83;;
14358;SDS011;7263;49.418;11.064;2024-02-16T12:51:50;4.27;;;3.87;;
14358;SDS011;7263;49.418;11.064;2024-02-16T12:54:21;5.23;;;4.17;;
14358;SDS011;7263;49.418;11.064;2024-02-16T12:56:48;5.20;;;4.27;;
14358;SDS011;7263;49.418;11.064;2024-02-16T12:59:18;5.13;;;4.30;;
14358;SDS011;7263;49.418;11.064;2024-02-16T13:01:45;5.37;;;3.80;;
14358;SDS011;7263;49.418;11.064;2024-02-16T13:04:15;4.80;;;4.30;;
14358;SDS011;7263;49.418;11.064;2024-02-16T13:06:46;4.67;;;4.10;;
14358;SDS011;7263;49.418;11.064;2024-02-16T13:09:15;5.93;;;3.73;;
14358;SDS011;7263;49.418;11.064;2024-02-16T13:11:54;4.63;;;3.90;;
14358;SDS011;7263;49.418;11.064;2024-02-16T13:14:31;4.70;;;4.30;;
14358;SDS011;7263;49.418;11.064;2024-02-16T13:17:06;5.83;;;4.33;;
14358;SDS011;7263;49.418;11.064;2024-02-16T13:19:47;5.07;;;4.27;;
14358;SDS011;7263;49.418;11.064;2024-02-16T13:22:14;5.00;;;4.30;;
14358;SDS011;7263;49.418;11.064;2024-02-16T13:24:43;6.77;;;4.33;;
14358;SDS011;7263;49.418;11.064;2024-02-16T13:27:14;4.50;;;4.07;;
14358;SDS011;7263;49.418;11.064;2024-02-16T13:29:43;5.10;;;4.50;;
14358;SDS011;7263;49.418;11.064;2024-02-16T13:32:10;5.53;;;4.40;;
14358;SDS011;7263;49.418;11.064;2024-02-16T13:34:39;7.43;;;4.90;;
14358;SDS011;7263;49.418;11.064;2024-02-16T13:37:12;4.50;;;3.80;;
14358;SDS011;7263;49.418;11.064;2024-02-16T13:39:38;5.73;;;4.10;;
14358;SDS011;7263;49.418;11.064;2024-02-16T13:42:17;5.03;;;4.20;;
14358;SDS011;7263;49.418;11.064;2024-02-16T13:44:44;6.23;;;4.50;;
14358;SDS011;7263;49.418;11.064;2024-02-16T13:47:12;4.50;;;3.83;;
14358;SDS011;7263;49.418;11.064;2024-02-16T13:49:41;5.77;;;3.67;;
14358;SDS011;7263;49.418;11.064;2024-02-16T13:52:08;5.37;;;4.20;;
14358;SDS011;7263;49.418;11.064;2024-02-16T13:54:38;5.50;;;4.07;;
14358;SDS011;7263;49.418;11.064;2024-02-16T13:57:10;6.83;;;3.97;;
14358;SDS011;7263;49.418;11.064;2024-02-16T13:59:45;5.90;;;4.27;;
14358;SDS011;7263;49.418;11.064;2024-02-16T14:02:15;5.63;;;3.80;;
14358;SDS011;7263;49.418;11.064;2024-02-16T14:04:44;5.10;;;4.47;;
14358;SDS011;7263;49.418;11.064;2024-02-16T14:07:11;5.37;;;4.13;;
14358;SDS011;7263;49.418;11.064;2024-02-16T14:09:46;4.70;;;4.13;;
14358;SDS011;7263;49.418;11.064;2024-02-16T14:12:13;6.93;;;4.33;;
14358;SDS011;7263;49.418;11.064;2024-02-16T14:14:42;7.97;;;4.63;;
14358;SDS011;7263;49.418;11.064;2024-02-16T14:17:11;5.37;;;4.10;;
14358;SDS011;7263;49.418;11.064;2024-02-16T14:19:39;6.03;;;4.17;;
14358;SDS011;7263;49.418;11.064;2024-02-16T14:22:09;5.10;;;4.37;;
14358;SDS011;7263;49.418;11.064;2024-02-16T14:24:37;4.73;;;4.03;;
14358;SDS011;7263;49.418;11.064;2024-02-16T14:27:18;6.07;;;4.20;;
14358;SDS011;7263;49.418;11.064;2024-02-16T14:29:49;7.00;;;4.37;;
14358;SDS011;7263;49.418;11.064;2024-02-16T14:32:23;5.27;;;3.90;;
14358;SDS011;7263;49.418;11.064;2024-02-16T14:34:52;5.33;;;4.00;;
14358;SDS011;7263;49.418;11.064;2024-02-16T14:37:19;5.20;;;3.90;;
14358;SDS011;7263;49.418;11.064;2024-02-16T14:39:45;4.67;;;4.20;;
14358;SDS011;7263;49.418;11.064;2024-02-16T14:42:21;5.63;;;3.67;;
14358;SDS011;7263;49.418;11.064;2024-02-16T14:44:50;4.43;;;4.00;;
14358;SDS011;7263;49.418;11.064;2024-02-16T14:47:20;4.50;;;4.00;;
14358;SDS011;7263;49.418;11.064;2024-02-16T14:49:47;6.70;;;5.03;;
14358;SDS011;7263;49.418;11.064;2024-02-16T14:52:30;5.30;;;4.27;;
14358;SDS011;7263;49.418;11.064;2024-02-16T14:54:59;7.13;;;4.40;;
14358;SDS011;7263;49.418;11.064;2024-02-16T14:57:26;6.20;;;4.70;;
14358;SDS011;7263;49.418;11.064;2024-02-16T14:59:57;4.97;;;4.43;;
14358;SDS011;7263;49.418;11.064;2024-02-16T15:02:26;5.47;;;4.00;;
14358;SDS011;7263;49.418;11.064;2024-02-16T15:04:57;6.60;;;4.43;;